Wednesday, August 31, 2016
06:14 UTC
  |  Log In   |  Register Free
Airport Search:

Ormond Beach Municipal Airport
(KOMN)

FAA data valid effective Jul 21 2016 - Sep 15 2016 (unless otherwise noted).

 
 
 
 
 
 
 
 
 
 
 
 
 
 
Current Aviation Weather for KOMN

Weather Summary


The most recent METAR observation for OMN was updated at: 12:50 UTC
METAR for OMN is not available. Closest METAR is for
METAR

METAR KOMN METAR not available

METAR KDAB 310606Z 19005KT 10SM BKN009 OVC024 24/23 A2992 RMK AO2 T02440233

METAR KDED 310555Z 18008KT 10SM SCT013 OVC021 25/23 A2992 RMK AO2

METAR KEVB METAR not available

TAF for OMN is not available.
TAF

KDAB - TAF KDAB 310523Z 3106/0106 19006KT P6SM VCSH FEW007 BKN045

KDAB - FM311400 21011KT P6SM VCSH SCT025 OVC100

KDAB - FM311700 22011G18KT P6SM VCSH SCT030 OVC060

KDAB - FM010000 20008KT P6SM VCSH FEW010 SCT040 BKN100 =

KSFB - TAF KSFB 310523Z 3106/0106 18008KT P6SM VCSH SCT013 BKN021

KSFB - FM311500 21013KT P6SM VCSH SCT025 OVC100

KSFB - FM311700 21013G21KT P6SM VCSH SCT030 OVC060

KSFB - FM010000 19008KT P6SM VCSH FEW010 SCT040 BKN100 =

GlobalAir.com is loading additional information.
 Current Weather at OMN
81.0 F° (27.0 C°)

East winds at 9.2 mph
Pressure:
29.88 in
Humidity:
84%
Wind:
East at 9.2 mph
Dew Point:
75.2 F° (24.0 C°)
Visibility:
10.00 mi
OMN NOAA Radar




Find All Airport Services Find A Hotel Find A Rental Car Find A Golf Course Find A Restaurant $100 Hamburger



Airport Weather Forecast for KOMN

Translated METAR for KDED (0555 UTC)
METAR:
KDED 310555Z AUTO Deland Muni-Sidney H Taylor FD, Deland, FL (KDED). Aug 31, 0555Z, Automated. Wind from 180° at 8 knots, 10 statute miles visibility, Scattered Clouds at 1,300 feet, Ceiling is Overcast at 2,100 feet, Temperature 25°C, Dewpoint 23°C, Altimeter is 29.92. Remarks: automated station with precipitation discriminator
Conditions at:
KDED (Deland Muni-Sidney H Taylor Field, FL) observed 0555 UTC 31 August 2016
Temperature:
77.0 F° (25.0 C°)
Dewpoint:
not reported - refer to area weather report
Pressure:
29.93 Hg
Winds:
not reported
Visibility:
10.00
Ceiling:
at least 12,000 feet AGL
Clouds:
not reported - refer to area weather report
Remarks:
site is un-manned

Translated TAF for TAF for OMN is not available. Refer to local area forecast.
FBO's on the Field
FBO Company Facility Photos Services Transportation Aviation Fuel Prices: Prices include tax
Catering Weather Repair Courtesy Rental Type 100LL JetA JetA+ MOGAS 8087
 
Sunrise Aviation

Currently rated 5 by 3 people
FS:Shell
Last Updated: Aug-04
Login to update fuel prices
SS:
Contact Sunrise AviationMore FBO Information
 
Add another FBO Facility Photos Catering Weather Repair Courtesy Rental Type 100LL JetA JetA+ MOGAS 8087
Services Transportation Aviation Fuel Prices: Prices include tax


model-print
model-print
model-print
model-print